Search for airport 
image banner adimage banner adimage banner ad
image banner ad

KTZT - Belle Plaine Muni

Located in Belle Plaine, United States

ICAO - TZT, IATA -

Data provided by Airmate  

General information

Coordinates: N41°52'44" W92°17'4"
Elevation is 771 feet MSL.
Magnetic variation is 00° East
View others Airports in Iowa

Operational data

Special qualification required
Current time UTC:
Current local time:
Weather at : KGGI - Grinnell Rgnl ( 42 km )
METAR: KGGI 181735Z AUTO 03004KT 10SM CLR 31/15 A2987 RMK AO2 T03050146
View NOTAMs / SUP AIP / TFR affecting this airport [VIEW]
Communications frequencies: [VIEW]

Runways:

RWY identifierQFULength (ft)Width (ft)SurfaceLDA (ft)
18177°400175CONC
36357°400175CONC

Airport contact information

Address: Belle Plaine United States

Satellite view of KTZT